Time;durP1;ratioP1;P1;durP2;ratioP2;P2;SDS_P1;SDS_P2;PMS_P1;PMS_P2;Temp;Humidity;BMP_temperature;BMP_pressure;BME280_temperature;BME280_humidity;BME280_pressure;Samples;Min_cycle;Max_cycle;Signal;HPM_P1;HPM_P2
2022/03/29 00:01:36;;;;;;;0.40;0.40;;;1.00;99.90;0.60;96126.00;;;;4864367;28;92705;-62
2022/03/29 00:04:03;;;;;;;0.35;0.35;;;1.00;99.90;0.60;96135.00;;;;4849946;29;95063;-62
2022/03/29 00:06:29;;;;;;;1.30;1.20;;;1.00;99.90;0.60;96131.00;;;;4877383;28;92646;-62
2022/03/29 00:08:56;;;;;;;0.40;0.40;;;1.00;99.90;0.60;96129.00;;;;4873245;28;91831;-61
2022/03/29 00:11:22;;;;;;;0.45;0.45;;;1.00;99.90;0.60;96133.00;;;;4875161;28;92592;-62
2022/03/29 00:13:49;;;;;;;0.40;0.40;;;1.00;99.90;0.60;96126.00;;;;4870709;28;93609;-62
2022/03/29 00:20:33;;;;;;;0.40;0.40;;;1.00;99.90;0.60;96129.00;;;;4875636;28;92702;-62
2022/03/29 00:22:59;;;;;;;0.52;0.52;;;1.00;99.90;0.60;96146.00;;;;4870444;28;92656;-62
2022/03/29 00:25:26;;;;;;;0.35;0.35;;;1.00;99.90;0.50;96132.00;;;;4882119;28;92371;-62
2022/03/29 00:27:52;;;;;;;0.65;0.65;;;1.00;99.90;0.60;96148.00;;;;4882303;28;92146;-62
2022/03/29 00:30:19;;;;;;;0.40;0.40;;;1.00;99.90;0.60;96149.00;;;;4865882;28;92100;-60
2022/03/29 00:32:46;;;;;;;0.30;0.30;;;1.00;99.90;0.60;96141.00;;;;4882436;28;92644;-60
2022/03/29 00:35:13;;;;;;;0.80;0.77;;;1.00;99.90;0.60;96148.00;;;;4869493;28;93455;-61
2022/03/29 00:37:41;;;;;;;0.50;0.50;;;1.00;99.90;0.60;96159.00;;;;4879699;28;92035;-61
2022/03/29 00:40:11;;;;;;;0.93;0.93;;;1.00;99.90;0.60;96156.00;;;;4869338;28;92371;-61
2022/03/29 00:42:40;;;;;;;1.15;1.15;;;1.00;99.90;0.60;96152.00;;;;4874083;28;93757;-61
2022/03/29 00:45:07;;;;;;;1.23;1.23;;;1.00;99.90;0.60;96144.00;;;;4853947;28;93190;-61
2022/03/29 00:47:33;;;;;;;7.78;1.65;;;1.00;99.90;0.60;96157.00;;;;4879333;28;92111;-61
2022/03/29 00:49:59;;;;;;;1.38;1.38;;;1.00;99.90;0.60;96165.00;;;;4876088;28;92502;-61
2022/03/29 00:52:26;;;;;;;0.90;0.90;;;1.00;99.90;0.60;96141.00;;;;4882278;28;93996;-61
2022/03/29 00:54:52;;;;;;;1.33;1.33;;;1.00;99.90;0.60;96142.00;;;;4878608;28;92318;-61
2022/03/29 00:57:18;;;;;;;0.73;0.73;;;1.00;99.90;0.70;96160.00;;;;4882106;28;92583;-61
2022/03/29 00:59:46;;;;;;;0.98;0.98;;;1.10;99.90;0.70;96143.00;;;;4868900;28;91354;-61
2022/03/29 01:02:13;;;;;;;1.25;1.25;;;1.10;99.90;0.70;96127.00;;;;4872453;28;93779;-60
2022/03/29 01:04:40;;;;;;;0.80;0.80;;;1.10;99.90;0.70;96135.00;;;;4875466;28;92292;-60
2022/03/29 01:07:06;;;;;;;1.40;1.40;;;1.00;99.90;0.60;96130.00;;;;4875677;28;92991;-61
2022/03/29 01:09:33;;;;;;;2.75;2.65;;;1.10;99.90;0.70;96133.00;;;;4867737;28;92396;-60
2022/03/29 01:12:00;;;;;;;1.70;1.60;;;1.10;99.90;0.60;96144.00;;;;4874654;28;93082;-60
2022/03/29 01:14:27;;;;;;;1.90;1.80;;;1.00;99.90;0.60;96136.00;;;;4867670;28;94112;-62
2022/03/29 01:19:43;;;;;;;1.88;1.77;;;1.00;99.90;0.50;96136.00;;;;4869182;28;92370;-61
2022/03/29 01:22:10;;;;;;;1.30;1.20;;;1.00;99.90;0.50;96144.00;;;;4868166;28;92737;-61
2022/03/29 01:24:40;;;;;;;0.90;0.90;;;0.90;99.90;0.40;96126.00;;;;4877441;28;93298;-61
2022/03/29 01:27:10;;;;;;;1.00;1.00;;;0.90;99.90;0.40;96129.00;;;;4881785;28;92102;-62
2022/03/29 01:29:40;;;;;;;1.63;1.52;;;0.90;99.90;0.40;96133.00;;;;4882310;28;92547;-62
2022/03/29 01:32:10;;;;;;;0.70;0.70;;;0.80;99.90;0.30;96132.00;;;;4880952;28;94037;-62
2022/03/29 01:34:41;;;;;;;1.17;1.17;;;0.80;99.90;0.20;96132.00;;;;4874408;28;94170;-61
2022/03/29 01:37:08;;;;;;;0.60;0.60;;;0.70;99.90;0.20;96127.00;;;;4878462;28;92352;-62
2022/03/29 01:39:35;;;;;;;0.60;0.60;;;0.70;99.90;0.20;96138.00;;;;4877546;28;92425;-60
2022/03/29 01:42:03;;;;;;;2.75;2.65;;;0.70;99.90;0.30;96140.00;;;;4871468;28;93170;-61
2022/03/29 01:44:30;;;;;;;0.65;0.55;;;0.70;99.90;0.30;96156.00;;;;4860399;29;93989;-61
2022/03/29 01:46:56;;;;;;;1.05;1.05;;;0.80;99.90;0.40;96154.00;;;;4883736;28;92021;-61
2022/03/29 01:49:22;;;;;;;0.70;0.70;;;0.80;99.90;0.40;96143.00;;;;4870982;28;91473;-61
2022/03/29 01:51:49;;;;;;;0.50;0.50;;;0.80;99.90;0.40;96139.00;;;;4855107;29;92792;-61
2022/03/29 01:54:15;;;;;;;0.40;0.40;;;0.80;99.90;0.40;96144.00;;;;4839964;29;93329;-61
2022/03/29 01:56:41;;;;;;;0.60;0.60;;;0.80;99.90;0.50;96149.00;;;;4852767;29;93027;-62
2022/03/29 01:59:12;;;;;;;0.50;0.50;;;0.90;99.90;0.50;96149.00;;;;4836801;29;93052;-62
2022/03/29 02:01:47;;;;;;;0.45;0.45;;;0.90;99.90;0.50;96158.00;;;;4863055;29;92770;-60
2022/03/29 02:04:16;;;;;;;0.50;0.50;;;0.90;99.90;0.50;96158.00;;;;4862774;29;93128;-62
2022/03/29 02:06:42;;;;;;;0.50;0.50;;;1.00;99.90;0.50;96153.00;;;;4853413;29;92599;-62
2022/03/29 02:09:10;;;;;;;0.30;0.30;;;1.00;99.90;0.60;96165.00;;;;4844749;29;92348;-62
2022/03/29 02:11:41;;;;;;;0.30;0.30;;;1.00;99.90;0.60;96159.00;;;;4860772;29;92137;-62
2022/03/29 02:14:08;;;;;;;0.50;0.50;;;1.00;99.90;0.60;96164.00;;;;4860410;29;93154;-61
2022/03/29 02:16:34;;;;;;;0.52;0.52;;;1.00;99.90;0.60;96166.00;;;;4860178;29;92405;-62
2022/03/29 02:19:01;;;;;;;0.30;0.30;;;1.00;99.90;0.60;96175.00;;;;4836881;29;92106;-62
2022/03/29 02:21:27;;;;;;;0.75;0.60;;;1.00;99.90;0.60;96172.00;;;;4858509;29;93795;-62
2022/03/29 02:23:53;;;;;;;0.50;0.50;;;1.10;99.90;0.60;96176.00;;;;4858817;29;93253;-62
2022/03/29 02:26:19;;;;;;;0.50;0.50;;;1.00;99.90;0.60;96175.00;;;;4865485;29;92039;-62
2022/03/29 02:28:45;;;;;;;0.47;0.47;;;1.00;99.90;0.50;96171.00;;;;4865290;29;92547;-62
2022/03/29 02:31:11;;;;;;;0.60;0.60;;;1.00;99.90;0.50;96170.00;;;;4865595;29;92675;-62
2022/03/29 02:33:38;;;;;;;0.30;0.30;;;0.90;99.90;0.50;96170.00;;;;4847984;29;93646;-62
2022/03/29 02:36:22;;;;;;;0.30;0.30;;;0.90;99.90;0.50;96170.00;;;;4850176;29;92050;-62
2022/03/29 02:48:18;;;;;;;0.40;0.40;;;0.90;99.90;0.40;96177.00;;;;4857540;29;93512;-61
2022/03/29 02:50:44;;;;;;;0.43;0.43;;;0.80;99.90;0.40;96184.00;;;;4875046;28;92091;-61
2022/03/29 02:56:51;;;;;;;0.30;0.30;;;0.90;99.90;0.50;96191.00;;;;4874053;28;92099;-61
2022/03/29 02:59:17;;;;;;;0.30;0.30;;;0.90;99.90;0.50;96190.00;;;;4873711;28;92097;-61
2022/03/29 03:02:22;;;;;;;0.32;0.32;;;0.90;99.90;0.50;96190.00;;;;4872474;28;92624;-61
2022/03/29 03:05:26;;;;;;;0.30;0.30;;;0.90;99.90;0.50;96192.00;;;;4852592;28;93749;-62
2022/03/29 03:10:57;;;;;;;0.77;0.63;;;0.90;99.90;0.40;96186.00;;;;4878131;28;92164;-61
2022/03/29 03:14:18;;;;;;;0.30;0.30;;;0.90;99.90;0.40;96187.00;;;;4876906;28;92334;-61
2022/03/29 03:17:03;;;;;;;0.40;0.40;;;0.80;99.90;0.40;96183.00;;;;4875181;28;93785;-61
2022/03/29 03:19:29;;;;;;;0.50;0.50;;;0.80;99.90;0.40;96194.00;;;;4868581;28;93302;-61
2022/03/29 03:21:56;;;;;;;0.40;0.40;;;0.80;99.90;0.40;96183.00;;;;4875345;28;92505;-61
2022/03/29 03:24:22;;;;;;;0.45;0.45;;;0.90;99.90;0.50;96206.00;;;;4879554;28;92139;-61
2022/03/29 03:26:48;;;;;;;5.38;0.55;;;0.90;99.90;0.40;96207.00;;;;4882383;28;92625;-61
2022/03/29 03:29:14;;;;;;;0.40;0.40;;;0.80;99.90;0.40;96196.00;;;;4883175;28;92552;-60
2022/03/29 03:31:40;;;;;;;0.40;0.40;;;0.80;99.90;0.30;96202.00;;;;4867378;28;92418;-60
2022/03/29 03:34:06;;;;;;;0.68;0.68;;;0.70;99.90;0.30;96208.00;;;;4880988;28;91378;-61
2022/03/29 03:36:32;;;;;;;0.52;0.52;;;0.70;99.90;0.20;96193.00;;;;4867420;28;92166;-60
2022/03/29 03:38:58;;;;;;;0.70;0.70;;;0.70;99.90;0.40;96195.00;;;;4868663;28;92529;-61
2022/03/29 03:41:25;;;;;;;0.80;0.80;;;0.70;99.90;0.80;96210.00;;;;4874296;28;92979;-61
2022/03/29 03:43:51;;;;;;;0.50;0.50;;;0.90;99.90;1.30;96199.00;;;;4872673;28;92167;-61
2022/03/29 03:46:17;;;;;;;0.52;0.52;;;1.20;99.90;1.80;96206.00;;;;4875888;28;92725;-61
2022/03/29 03:48:43;;;;;;;0.40;0.40;;;1.40;99.90;2.00;96218.00;;;;4875020;28;92424;-61
2022/03/29 03:51:09;;;;;;;0.30;0.30;;;1.60;99.90;2.20;96206.00;;;;4864106;28;92155;-61
2022/03/29 03:53:35;;;;;;;0.40;0.40;;;1.80;99.90;2.60;96213.00;;;;4847753;29;92097;-61
2022/03/29 03:56:01;;;;;;;0.40;0.40;;;2.00;99.90;2.80;96215.00;;;;4860028;29;93314;-61
2022/03/29 03:58:28;;;;;;;0.52;0.52;;;2.20;99.90;3.00;96216.00;;;;4859045;29;92277;-61
2022/03/29 04:00:54;;;;;;;0.50;0.50;;;2.30;99.90;2.80;96218.00;;;;4847810;29;92150;-61
2022/03/29 04:03:20;;;;;;;0.88;0.88;;;2.20;99.90;2.80;96218.00;;;;4852293;29;92008;-61
2022/03/29 04:05:47;;;;;;;0.93;0.50;;;2.30;99.90;3.30;96232.00;;;;4856091;29;93756;-61
2022/03/29 04:08:13;;;;;;;0.30;0.30;;;2.50;99.90;3.30;96223.00;;;;4854230;29;94493;-61
2022/03/29 04:10:40;;;;;;;0.20;0.20;;;2.60;99.90;3.30;96235.00;;;;4859722;29;92177;-61
2022/03/29 04:13:06;;;;;;;0.35;0.35;;;2.60;99.90;3.30;96234.00;;;;4838064;29;92498;-61
2022/03/29 04:15:32;;;;;;;0.63;0.63;;;2.60;99.90;3.10;96230.00;;;;4838668;29;93801;-61
2022/03/29 04:18:01;;;;;;;1.10;0.55;;;2.60;99.90;2.80;96240.00;;;;4859264;29;92342;-61
2022/03/29 04:20:29;;;;;;;0.30;0.30;;;2.50;99.90;2.40;96239.00;;;;4851696;29;92522;-61
2022/03/29 04:22:56;;;;;;;0.30;0.30;;;2.30;99.90;2.30;96239.00;;;;4861039;29;91318;-61
2022/03/29 04:25:22;;;;;;;0.30;0.30;;;2.20;99.90;2.10;96238.00;;;;4850292;29;92816;-61
2022/03/29 04:27:49;;;;;;;0.20;0.20;;;2.00;99.90;1.90;96241.00;;;;4862398;29;92659;-61
2022/03/29 04:30:15;;;;;;;0.95;0.65;;;1.90;99.90;1.80;96246.00;;;;4863288;29;92864;-61
2022/03/29 04:32:41;;;;;;;0.30;0.30;;;1.90;99.90;1.90;96257.00;;;;4863227;29;92127;-62
2022/03/29 04:35:08;;;;;;;0.40;0.40;;;1.90;99.90;2.20;96227.00;;;;4853598;29;94237;-61
2022/03/29 04:37:34;;;;;;;0.63;0.63;;;2.00;99.90;2.00;96252.00;;;;4857732;29;92470;-61
2022/03/29 04:40:01;;;;;;;0.30;0.30;;;1.90;99.90;2.70;96247.00;;;;4854245;29;92070;-61
2022/03/29 04:42:27;;;;;;;0.40;0.40;;;2.20;99.90;3.10;96244.00;;;;4851023;29;92151;-61
2022/03/29 04:44:53;;;;;;;0.40;0.40;;;2.60;99.90;3.70;96241.00;;;;4860119;29;92715;-61
2022/03/29 04:47:19;;;;;;;0.45;0.30;;;3.00;99.90;3.80;96250.00;;;;4848724;29;93317;-61
2022/03/29 04:49:46;;;;;;;0.30;0.30;;;3.30;99.90;3.70;96261.00;;;;4857937;28;93280;-61
2022/03/29 04:52:13;;;;;;;0.50;0.50;;;3.30;99.90;3.70;96263.00;;;;4870978;28;92432;-61
2022/03/29 04:54:39;;;;;;;0.30;0.30;;;3.20;99.90;3.60;96274.00;;;;4872994;28;95147;-61
2022/03/29 04:57:05;;;;;;;0.30;0.30;;;3.40;99.90;3.50;96266.00;;;;4873699;28;94640;-61
2022/03/29 04:59:31;;;;;;;1.75;0.57;;;3.20;99.90;3.30;96266.00;;;;4870028;28;92285;-61
2022/03/29 05:01:58;;;;;;;0.30;0.30;;;3.10;99.90;3.00;96276.00;;;;4870988;28;92368;-62
2022/03/29 05:04:24;;;;;;;0.30;0.30;;;3.00;99.90;2.90;96269.00;;;;4873041;28;92640;-61
2022/03/29 05:06:50;;;;;;;0.30;0.30;;;2.90;99.90;3.00;96265.00;;;;4871966;28;92307;-62
2022/03/29 05:09:16;;;;;;;0.77;0.77;;;3.00;99.90;3.20;96282.00;;;;4865864;28;92292;-60
2022/03/29 05:11:42;;;;;;;0.38;0.38;;;3.20;99.90;3.10;96274.00;;;;4876435;28;91640;-61
2022/03/29 05:14:09;;;;;;;0.35;0.35;;;3.10;99.90;2.80;96280.00;;;;4867979;28;93638;-61
2022/03/29 05:16:35;;;;;;;0.20;0.20;;;2.90;99.90;2.50;96288.00;;;;4876739;28;93086;-61
2022/03/29 05:19:01;;;;;;;0.30;0.30;;;2.70;99.90;2.40;96286.00;;;;4871312;28;92995;-61
2022/03/29 05:21:28;;;;;;;1.15;0.35;;;2.60;99.90;2.30;96295.00;;;;4872672;28;92251;-62
2022/03/29 05:23:54;;;;;;;0.50;0.50;;;2.50;99.90;2.20;96288.00;;;;4878312;28;93683;-61
2022/03/29 05:26:21;;;;;;;0.30;0.30;;;2.40;99.90;2.20;96286.00;;;;4878335;28;92513;-61
2022/03/29 05:28:47;;;;;;;0.28;0.28;;;2.40;99.90;2.20;96284.00;;;;4881420;28;92589;-62
2022/03/29 05:31:14;;;;;;;0.52;0.50;;;2.50;99.90;2.30;96288.00;;;;4881590;28;92472;-61
2022/03/29 05:33:40;;;;;;;0.30;0.30;;;2.50;99.90;2.30;96278.00;;;;4880956;28;92715;-61
2022/03/29 05:36:06;;;;;;;0.35;0.35;;;2.50;99.90;2.40;96285.00;;;;4866011;28;92509;-61
2022/03/29 05:38:32;;;;;;;0.40;0.40;;;2.60;99.90;2.40;96284.00;;;;4877272;28;91976;-61
2022/03/29 05:40:58;;;;;;;0.63;0.63;;;2.70;99.90;2.70;96301.00;;;;4863472;28;93013;-61
2022/03/29 05:43:25;;;;;;;0.40;0.40;;;2.80;99.90;2.70;96295.00;;;;4872560;28;94732;-61
2022/03/29 05:48:56;;;;;;;0.38;0.38;;;3.00;99.90;2.90;96308.00;;;;4875754;28;92248;-60
2022/03/29 05:51:24;;;;;;;0.40;0.40;;;3.00;99.90;2.90;96303.00;;;;4863581;28;92024;-62
2022/03/29 05:53:52;;;;;;;0.40;0.40;;;3.10;99.90;2.80;96303.00;;;;4862140;29;93001;-63
2022/03/29 05:56:19;;;;;;;0.43;0.43;;;3.00;99.90;2.80;96302.00;;;;4867755;28;92349;-62
2022/03/29 05:58:45;;;;;;;0.60;0.60;;;3.00;99.90;2.80;96302.00;;;;4875681;28;92447;-61
2022/03/29 06:01:12;;;;;;;0.55;0.52;;;3.00;99.90;2.70;96293.00;;;;4865134;28;91342;-62
2022/03/29 06:03:38;;;;;;;0.40;0.40;;;2.90;99.90;2.70;96297.00;;;;4868812;28;93890;-61
2022/03/29 06:06:04;;;;;;;0.35;0.35;;;2.90;99.90;2.80;96300.00;;;;4872914;28;92203;-61
2022/03/29 06:08:34;;;;;;;0.63;0.63;;;3.00;99.90;2.60;96307.00;;;;4872387;28;92914;-61
2022/03/29 06:11:00;;;;;;;0.30;0.30;;;2.80;99.90;2.70;96313.00;;;;4875581;28;92579;-61
2022/03/29 06:13:27;;;;;;;0.73;0.73;;;2.90;99.90;2.70;96314.00;;;;4870030;28;92679;-62
2022/03/29 06:15:53;;;;;;;0.57;0.57;;;3.00;99.90;2.70;96321.00;;;;4858831;28;93583;-61
2022/03/29 06:18:21;;;;;;;1.27;0.73;;;3.00;99.90;2.70;96314.00;;;;4875133;28;92543;-61
2022/03/29 06:20:48;;;;;;;0.30;0.30;;;2.90;99.90;2.80;96309.00;;;;4875264;28;92106;-61
2022/03/29 06:23:16;;;;;;;0.30;0.30;;;3.00;99.90;2.80;96321.00;;;;4878706;28;92672;-61
2022/03/29 06:25:43;;;;;;;0.40;0.40;;;3.00;99.90;2.80;96342.00;;;;4879842;28;92191;-61
2022/03/29 06:28:34;;;;;;;0.47;0.47;;;3.00;99.90;2.70;96354.00;;;;4884513;28;92017;-61
2022/03/29 06:31:00;;;;;;;5.88;1.80;;;2.90;99.90;1.80;96405.00;;;;4884671;28;92134;-61
2022/03/29 06:33:26;;;;;;;2.05;1.55;;;1.90;99.90;0.40;96395.00;;;;4883069;28;93593;-62
2022/03/29 06:35:53;;;;;;;1.90;1.35;;;0.60;99.90;-0.10;96403.00;;;;4853294;29;93212;-62
2022/03/29 06:38:21;;;;;;;3.10;2.00;;;0.10;99.90;-0.10;96399.00;;;;4864096;28;92113;-62
2022/03/29 06:40:48;;;;;;;2.63;2.10;;;0.10;99.90;-0.10;96409.00;;;;4858723;28;92420;-61
2022/03/29 06:43:15;;;;;;;2.22;2.00;;;0.00;99.90;0.00;96409.00;;;;4872445;28;92577;-61
2022/03/29 06:45:41;;;;;;;2.47;1.88;;;0.10;99.90;0.10;96389.00;;;;4875979;28;92257;-60
2022/03/29 06:48:08;;;;;;;4.03;2.47;;;0.30;99.90;0.30;96408.00;;;;4868226;28;92143;-60
2022/03/29 06:50:35;;;;;;;2.60;2.40;;;0.40;99.90;0.40;96403.00;;;;4857812;28;91338;-60
2022/03/29 06:53:01;;;;;;;4.07;2.40;;;0.60;99.90;0.50;96408.00;;;;4845791;29;92638;-60
2022/03/29 06:55:28;;;;;;;2.65;2.00;;;0.70;99.90;0.50;96411.00;;;;4849056;29;92338;-60
2022/03/29 06:57:55;;;;;;;3.90;2.72;;;0.70;99.90;0.60;96403.00;;;;4860193;29;93268;-60
2022/03/29 07:00:21;;;;;;;3.17;2.13;;;0.70;99.90;0.90;96412.00;;;;4850261;29;92675;-60
2022/03/29 07:02:49;;;;;;;3.97;1.88;;;1.00;99.90;1.00;96409.00;;;;4848261;29;92745;-60
2022/03/29 07:05:16;;;;;;;3.88;1.70;;;1.10;99.90;1.10;96415.00;;;;4861391;29;92419;-60
2022/03/29 07:07:42;;;;;;;6.28;1.73;;;1.30;99.90;1.10;96418.00;;;;4833957;29;92067;-60
2022/03/29 07:13:00;;;;;;;5.88;1.75;;;1.20;99.90;1.10;96427.00;;;;4854912;29;93882;-61
2022/03/29 07:15:28;;;;;;;2.50;1.67;;;1.20;99.90;0.90;96421.00;;;;4855806;29;92148;-60
2022/03/29 07:17:56;;;;;;;2.72;1.60;;;1.10;99.90;0.90;96427.00;;;;4856618;29;91981;-59
2022/03/29 07:20:23;;;;;;;2.72;1.50;;;1.10;99.90;1.00;96442.00;;;;4854353;29;92096;-61
2022/03/29 07:22:50;;;;;;;4.15;1.80;;;1.10;99.90;1.10;96447.00;;;;4853498;28;94791;-59
2022/03/29 07:25:19;;;;;;;3.47;1.85;;;1.20;99.90;1.00;96450.00;;;;4853289;29;93223;-60
2022/03/29 07:27:49;;;;;;;1.98;1.50;;;1.20;99.90;0.80;96460.00;;;;4856014;29;92657;-60
2022/03/29 07:30:16;;;;;;;1.63;1.50;;;1.00;99.90;0.60;96460.00;;;;4852981;29;92432;-60
2022/03/29 07:32:54;;;;;;;2.00;1.50;;;0.90;99.90;0.60;96451.00;;;;4829056;29;93535;-60
2022/03/29 07:35:22;;;;;;;2.00;1.58;;;0.80;99.90;1.10;96450.00;;;;4854620;29;92473;-61
2022/03/29 07:37:49;;;;;;;2.80;1.80;;;1.30;99.90;1.60;96454.00;;;;4855653;29;92089;-60
2022/03/29 07:40:21;;;;;;;3.00;1.80;;;1.60;99.90;1.80;96458.00;;;;4853661;29;91418;-59
2022/03/29 07:42:49;;;;;;;5.00;2.15;;;1.80;99.90;2.20;96458.00;;;;4853637;29;92867;-60
2022/03/29 07:45:16;;;;;;;3.00;1.73;;;2.10;99.90;2.40;96453.00;;;;4857676;29;93234;-59
2022/03/29 07:47:43;;;;;;;2.78;1.60;;;2.20;99.90;2.30;96460.00;;;;4852820;29;93288;-60
2022/03/29 07:50:12;;;;;;;6.03;1.92;;;2.20;99.90;2.40;96479.00;;;;4843171;28;92131;-59
2022/03/29 07:52:42;;;;;;;3.05;1.85;;;2.40;99.90;2.20;96471.00;;;;4872033;28;92645;-59
2022/03/29 07:55:11;;;;;;;2.85;1.50;;;2.20;99.90;2.20;96466.00;;;;4875122;28;92294;-60
2022/03/29 07:57:39;;;;;;;2.03;1.05;;;2.30;99.90;1.70;96488.00;;;;4882528;28;92596;-59
2022/03/29 08:02:54;;;;;;;2.72;1.40;;;1.70;99.90;1.60;96496.00;;;;4866573;28;93820;-60
2022/03/29 08:05:21;;;;;;;2.85;1.30;;;1.70;99.90;1.60;96480.00;;;;4862786;28;93655;-61
2022/03/29 08:07:48;;;;;;;7.60;1.60;;;1.70;99.90;1.70;96493.00;;;;4869267;28;92055;-61
2022/03/29 08:10:14;;;;;;;1.95;1.30;;;1.80;99.90;1.80;96487.00;;;;4862052;28;92162;-61
2022/03/29 08:12:41;;;;;;;2.35;1.50;;;1.80;99.90;1.90;96494.00;;;;4877351;28;94225;-61
2022/03/29 08:15:10;;;;;;;4.82;1.50;;;2.00;99.90;2.20;96496.00;;;;4866692;28;93255;-61
2022/03/29 08:17:37;;;;;;;3.42;2.13;;;2.30;99.90;2.30;96504.00;;;;4865683;28;92095;-61
2022/03/29 08:20:06;;;;;;;5.07;1.70;;;2.30;99.90;2.40;96495.00;;;;4865289;28;92637;-61
2022/03/29 08:22:34;;;;;;;2.53;1.70;;;2.50;99.90;2.60;96494.00;;;;4862498;28;92654;-61
2022/03/29 08:25:02;;;;;;;3.55;1.50;;;2.70;99.90;2.80;96500.00;;;;4874032;28;93209;-61
2022/03/29 08:27:29;;;;;;;6.50;1.75;;;2.80;99.90;3.00;96515.00;;;;4873396;28;92058;-61
2022/03/29 08:29:55;;;;;;;4.50;1.80;;;3.00;99.90;3.10;96507.00;;;;4863749;29;91725;-61
2022/03/29 08:32:22;;;;;;;4.43;1.90;;;3.00;99.90;3.50;96506.00;;;;4863448;28;92815;-61
2022/03/29 08:34:48;;;;;;;4.63;1.70;;;3.50;99.90;3.80;96500.00;;;;4876601;28;93684;-61
2022/03/29 08:37:14;;;;;;;3.33;1.80;;;3.80;99.90;4.00;96524.00;;;;4870540;28;92931;-60
2022/03/29 08:39:40;;;;;;;3.55;1.55;;;3.80;99.90;3.70;96528.00;;;;4877065;28;92038;-60
2022/03/29 08:42:11;;;;;;;3.22;1.48;;;3.60;99.90;3.10;96521.00;;;;4852630;29;95288;-61
2022/03/29 08:44:39;;;;;;;1.77;1.33;;;2.90;99.90;2.90;96531.00;;;;4875651;28;93662;-61
2022/03/29 08:47:10;;;;;;;2.50;1.40;;;2.70;99.90;2.90;96544.00;;;;4866902;28;92369;-61
2022/03/29 08:49:37;;;;;;;2.78;1.50;;;2.90;99.90;2.80;96537.00;;;;4868848;28;92621;-61
2022/03/29 08:52:07;;;;;;;1.98;1.65;;;2.70;99.90;2.70;96547.00;;;;4864540;28;94332;-61
2022/03/29 08:54:33;;;;;;;4.93;1.85;;;2.60;99.90;2.70;96554.00;;;;4865016;28;93831;-61
2022/03/29 08:57:00;;;;;;;3.67;1.67;;;2.60;99.90;2.40;96531.00;;;;4872691;28;92058;-61
2022/03/29 08:59:29;;;;;;;3.38;1.65;;;2.50;99.90;2.30;96553.00;;;;4873395;28;92158;-61
2022/03/29 09:01:57;;;;;;;4.43;1.58;;;2.30;99.90;2.00;96552.00;;;;4877153;28;93923;-61
2022/03/29 09:04:25;;;;;;;2.05;1.45;;;2.00;99.90;1.90;96549.00;;;;4873391;28;94175;-61
2022/03/29 09:07:00;;;;;;;2.95;2.00;;;2.00;99.90;2.20;96555.00;;;;4870324;28;91987;-61
2022/03/29 09:09:38;;;;;;;4.28;2.00;;;2.10;99.90;2.70;96564.00;;;;4866259;28;92371;-60
2022/03/29 09:12:15;;;;;;;2.75;1.70;;;2.60;99.90;2.70;96564.00;;;;4878799;28;93763;-61
2022/03/29 09:15:02;;;;;;;3.58;1.67;;;2.60;99.90;2.70;96577.00;;;;4867537;28;93517;-61
2022/03/29 09:17:39;;;;;;;3.60;1.70;;;2.60;99.90;2.50;96600.00;;;;4878335;28;92160;-61
2022/03/29 09:20:10;;;;;;;2.70;1.80;;;2.40;99.90;2.30;96580.00;;;;4877829;28;91480;-61
2022/03/29 09:22:47;;;;;;;1.50;1.40;;;2.30;99.90;2.20;96586.00;;;;4873770;28;94024;-60
2022/03/29 09:25:47;;;;;;;2.75;1.67;;;2.20;99.90;2.20;96576.00;;;;4873219;28;92369;-63
2022/03/29 09:28:19;;;;;;;4.38;2.20;;;2.20;99.90;2.50;96583.00;;;;4852357;29;93551;-62
2022/03/29 09:30:52;;;;;;;3.53;1.80;;;2.50;99.90;2.70;96581.00;;;;4863054;29;91999;-62
2022/03/29 09:33:39;;;;;;;4.00;2.10;;;2.70;99.90;2.80;96588.00;;;;4871840;28;92969;-60
2022/03/29 09:36:08;;;;;;;3.63;2.05;;;2.80;99.90;2.80;96582.00;;;;4876063;28;93498;-61
2022/03/29 09:38:41;;;;;;;2.58;1.77;;;2.70;99.90;2.90;96592.00;;;;4866518;28;92023;-61
2022/03/29 09:41:29;;;;;;;2.58;1.67;;;2.80;99.90;3.30;96576.00;;;;4870128;28;92289;-61
2022/03/29 09:44:11;;;;;;;2.53;1.30;;;3.20;99.90;3.60;96585.00;;;;4871374;28;93716;-61
2022/03/29 09:47:04;;;;;;;1.95;1.40;;;3.50;99.90;3.40;96582.00;;;;4870849;28;93520;-62
2022/03/29 09:49:55;;;;;;;2.78;1.70;;;3.30;99.90;3.30;96592.00;;;;4869051;28;92455;-61
2022/03/29 09:52:30;;;;;;;3.70;1.67;;;3.20;99.90;3.20;96595.00;;;;4864087;28;92042;-61
2022/03/29 09:55:26;;;;;;;3.00;1.50;;;3.10;99.90;3.10;96593.00;;;;4865858;28;94219;-60
2022/03/29 09:57:57;;;;;;;3.55;1.60;;;3.00;99.90;3.00;96591.00;;;;4865226;28;93306;-62
2022/03/29 10:00:29;;;;;;;1.90;1.70;;;2.90;99.90;3.20;96593.00;;;;4872762;28;91979;-60
2022/03/29 10:02:57;;;;;;;2.55;1.67;;;3.10;99.90;3.20;96600.00;;;;4868103;28;92701;-61
2022/03/29 10:05:24;;;;;;;2.28;1.70;;;3.10;99.90;3.10;96608.00;;;;4865932;28;92835;-61
2022/03/29 10:11:07;;;;;;;2.30;1.70;;;3.00;99.90;2.80;96607.00;;;;4876298;28;92516;-60
2022/03/29 10:13:35;;;;;;;3.83;1.77;;;2.70;99.90;2.60;96621.00;;;;4877287;28;91515;-62
2022/03/29 10:16:02;;;;;;;2.47;1.88;;;2.60;99.90;2.20;96633.00;;;;4874043;28;92702;-61
2022/03/29 10:18:29;;;;;;;2.10;1.70;;;2.20;99.90;2.10;96634.00;;;;4877587;28;92285;-62
2022/03/29 10:20:56;;;;;;;2.72;1.77;;;2.00;99.90;1.80;96632.00;;;;4872064;28;93108;-62
2022/03/29 10:23:24;;;;;;;2.92;1.73;;;1.90;99.90;1.70;96624.00;;;;4867432;28;92292;-61
2022/03/29 10:25:53;;;;;;;2.85;1.80;;;1.80;99.90;1.70;96630.00;;;;4879121;28;93832;-62
2022/03/29 10:28:21;;;;;;;1.92;1.73;;;1.80;99.90;1.70;96628.00;;;;4880244;28;92590;-61
2022/03/29 10:30:48;;;;;;;4.82;1.83;;;1.70;99.90;1.80;96629.00;;;;4867799;28;91951;-62
2022/03/29 10:33:23;;;;;;;2.95;1.80;;;1.90;99.90;2.00;96632.00;;;;4883134;28;92463;-61
2022/03/29 10:35:59;;;;;;;2.70;1.90;;;2.00;99.90;2.10;96630.00;;;;4857362;29;92693;-62
2022/03/29 10:38:46;;;;;;;2.28;1.77;;;2.20;99.90;2.30;96633.00;;;;4881261;28;93401;-61
2022/03/29 10:41:31;;;;;;;2.47;1.90;;;2.30;99.90;2.30;96639.00;;;;4876534;28;92398;-61
2022/03/29 10:44:15;;;;;;;4.72;2.25;;;2.40;99.90;2.30;96631.00;;;;4875167;28;92010;-61
2022/03/29 10:46:47;;;;;;;2.50;2.05;;;2.40;99.90;2.30;96630.00;;;;4872664;28;93759;-62
2022/03/29 10:49:21;;;;;;;3.70;2.03;;;2.40;99.90;2.40;96638.00;;;;4873749;28;93322;-62
2022/03/29 10:51:51;;;;;;;3.92;2.13;;;2.50;99.90;2.30;96638.00;;;;4878604;28;92068;-61
2022/03/29 10:54:37;;;;;;;3.85;2.00;;;2.50;99.90;2.50;96632.00;;;;4885194;28;92102;-61
2022/03/29 10:57:07;;;;;;;3.83;2.33;;;2.60;99.90;2.40;96642.00;;;;4882336;28;92590;-61
2022/03/29 10:59:35;;;;;;;4.82;2.60;;;2.60;99.90;2.40;96635.00;;;;4875591;28;92521;-61
2022/03/29 11:02:19;;;;;;;5.88;2.70;;;2.50;99.90;2.40;96640.00;;;;4852050;29;92974;-61
2022/03/29 11:05:06;;;;;;;2.63;2.13;;;2.50;99.90;2.30;96643.00;;;;4878572;28;92310;-61
2022/03/29 11:07:52;;;;;;;4.55;2.33;;;2.60;99.90;2.40;96640.00;;;;4871797;28;92743;-62
2022/03/29 11:10:23;;;;;;;3.95;2.40;;;2.60;99.90;2.30;96643.00;;;;4860654;28;92086;-62
2022/03/29 11:12:53;;;;;;;3.90;2.67;;;2.50;99.90;2.30;96644.00;;;;4855115;28;92961;-62
2022/03/29 11:15:33;;;;;;;6.90;2.75;;;2.50;99.90;2.40;96634.00;;;;4881421;28;92708;-61
2022/03/29 11:18:01;;;;;;;6.78;2.65;;;2.60;99.90;2.40;96628.00;;;;4876945;28;92682;-62
2022/03/29 11:20:33;;;;;;;4.18;1.90;;;2.60;99.90;2.50;96647.00;;;;4864178;28;92460;-62
2022/03/29 11:23:01;;;;;;;3.05;1.98;;;2.70;99.90;2.40;96635.00;;;;4880653;28;92601;-62
2022/03/29 11:25:28;;;;;;;2.30;1.85;;;2.50;99.90;2.60;96636.00;;;;4874182;28;92182;-62
2022/03/29 11:28:22;;;;;;;2.47;1.88;;;2.70;99.90;2.80;96633.00;;;;4879487;28;94163;-61
2022/03/29 11:30:56;;;;;;;3.08;2.10;;;2.90;99.90;3.00;96631.00;;;;4883766;28;93542;-62
2022/03/29 11:33:35;;;;;;;3.75;2.50;;;3.00;99.90;2.90;96633.00;;;;4883198;28;91999;-62
2022/03/29 11:36:06;;;;;;;4.18;2.40;;;3.00;99.90;3.10;96641.00;;;;4871917;28;92089;-61
2022/03/29 11:38:36;;;;;;;5.65;2.63;;;3.10;99.90;3.10;96647.00;;;;4862580;28;94753;-62
2022/03/29 11:41:04;;;;;;;6.07;2.20;;;3.10;99.90;3.10;96654.00;;;;4873712;28;93318;-62
2022/03/29 11:43:32;;;;;;;2.78;2.20;;;3.10;99.90;3.00;96661.00;;;;4872917;28;92540;-62
2022/03/29 11:45:58;;;;;;;2.97;2.20;;;3.00;99.90;3.00;96659.00;;;;4877082;28;91880;-62
2022/03/29 11:48:26;;;;;;;4.72;2.20;;;3.00;99.90;2.90;96674.00;;;;4867666;28;92788;-62
2022/03/29 11:51:01;;;;;;;3.15;2.47;;;3.00;99.90;2.80;96671.00;;;;4854778;28;92342;-62
2022/03/29 11:53:32;;;;;;;4.93;2.40;;;2.80;99.90;2.70;96672.00;;;;4865002;29;91956;-62
2022/03/29 11:56:14;;;;;;;3.55;2.45;;;2.80;99.90;2.70;96668.00;;;;4845231;29;91402;-62